sensor_id;sensor_type;location;lat;lon;timestamp;temperature;humidity
62573;DHT22;48626;51.678;5.806;2022-11-20T00:00:02;-1.20;99.90
62573;DHT22;48626;51.678;5.806;2022-11-20T00:02:27;-1.20;99.90
62573;DHT22;48626;51.678;5.806;2022-11-20T00:04:53;-1.20;99.90
62573;DHT22;48626;51.678;5.806;2022-11-20T00:07:19;-1.30;99.90
62573;DHT22;48626;51.678;5.806;2022-11-20T00:09:44;-1.30;99.90
62573;DHT22;48626;51.678;5.806;2022-11-20T00:12:10;-1.30;99.90
62573;DHT22;48626;51.678;5.806;2022-11-20T00:14:35;-1.30;99.90
62573;DHT22;48626;51.678;5.806;2022-11-20T00:17:01;-1.30;99.90
62573;DHT22;48626;51.678;5.806;2022-11-20T00:19:27;-1.40;99.90
62573;DHT22;48626;51.678;5.806;2022-11-20T00:21:52;-1.40;99.90
62573;DHT22;48626;51.678;5.806;2022-11-20T00:24:19;-1.40;99.90
62573;DHT22;48626;51.678;5.806;2022-11-20T00:26:44;-1.40;99.90
62573;DHT22;48626;51.678;5.806;2022-11-20T00:29:10;-1.40;99.90
62573;DHT22;48626;51.678;5.806;2022-11-20T00:31:36;-1.50;99.90
62573;DHT22;48626;51.678;5.806;2022-11-20T00:34:02;-1.50;99.90
62573;DHT22;48626;51.678;5.806;2022-11-20T00:36:28;-1.50;99.90
62573;DHT22;48626;51.678;5.806;2022-11-20T00:38:56;-1.50;99.90
62573;DHT22;48626;51.678;5.806;2022-11-20T00:41:22;-1.50;99.90
62573;DHT22;48626;51.678;5.806;2022-11-20T00:43:48;-1.50;99.90
62573;DHT22;48626;51.678;5.806;2022-11-20T00:46:19;-1.60;99.90
62573;DHT22;48626;51.678;5.806;2022-11-20T00:48:45;-1.60;99.90
62573;DHT22;48626;51.678;5.806;2022-11-20T00:51:15;-1.60;99.90
62573;DHT22;48626;51.678;5.806;2022-11-20T00:53:41;-1.60;99.90
62573;DHT22;48626;51.678;5.806;2022-11-20T00:56:10;-1.60;99.90
62573;DHT22;48626;51.678;5.806;2022-11-20T00:58:40;-1.70;99.90
62573;DHT22;48626;51.678;5.806;2022-11-20T01:03:38;-1.70;99.90
62573;DHT22;48626;51.678;5.806;2022-11-20T01:06:06;-1.70;99.90
62573;DHT22;48626;51.678;5.806;2022-11-20T01:08:33;-1.70;99.90
62573;DHT22;48626;51.678;5.806;2022-11-20T01:11:01;-1.70;99.90
62573;DHT22;48626;51.678;5.806;2022-11-20T01:13:28;-1.70;99.90
62573;DHT22;48626;51.678;5.806;2022-11-20T01:16:08;-1.70;99.90
62573;DHT22;48626;51.678;5.806;2022-11-20T01:18:35;-1.70;99.90
62573;DHT22;48626;51.678;5.806;2022-11-20T01:21:03;-1.70;99.90
62573;DHT22;48626;51.678;5.806;2022-11-20T01:23:37;-1.70;99.90
62573;DHT22;48626;51.678;5.806;2022-11-20T01:26:04;-1.70;99.90
62573;DHT22;48626;51.678;5.806;2022-11-20T01:28:31;-1.70;99.90
62573;DHT22;48626;51.678;5.806;2022-11-20T01:30:57;-1.80;99.90
62573;DHT22;48626;51.678;5.806;2022-11-20T01:33:23;-1.80;99.90
62573;DHT22;48626;51.678;5.806;2022-11-20T01:35:49;-1.80;99.90
62573;DHT22;48626;51.678;5.806;2022-11-20T01:38:16;-1.80;99.90
62573;DHT22;48626;51.678;5.806;2022-11-20T01:40:42;-1.80;99.90
62573;DHT22;48626;51.678;5.806;2022-11-20T01:43:18;-1.90;99.90
62573;DHT22;48626;51.678;5.806;2022-11-20T01:46:15;-1.90;99.90
62573;DHT22;48626;51.678;5.806;2022-11-20T01:51:44;-1.90;99.90
62573;DHT22;48626;51.678;5.806;2022-11-20T01:54:18;-1.90;99.90
62573;DHT22;48626;51.678;5.806;2022-11-20T01:56:45;-1.90;99.90
62573;DHT22;48626;51.678;5.806;2022-11-20T01:59:15;-2.00;99.90
62573;DHT22;48626;51.678;5.806;2022-11-20T02:01:41;-2.00;99.90
62573;DHT22;48626;51.678;5.806;2022-11-20T02:04:08;-2.00;99.90
62573;DHT22;48626;51.678;5.806;2022-11-20T02:06:55;-2.00;99.90
62573;DHT22;48626;51.678;5.806;2022-11-20T02:09:22;-2.00;99.90
62573;DHT22;48626;51.678;5.806;2022-11-20T02:11:48;-2.00;99.90
62573;DHT22;48626;51.678;5.806;2022-11-20T02:14:14;-2.00;99.90
62573;DHT22;48626;51.678;5.806;2022-11-20T02:16:44;-2.10;99.90
62573;DHT22;48626;51.678;5.806;2022-11-20T02:24:31;-2.10;99.90
62573;DHT22;48626;51.678;5.806;2022-11-20T02:27:01;-2.10;99.90
62573;DHT22;48626;51.678;5.806;2022-11-20T02:29:52;-2.10;99.90
62573;DHT22;48626;51.678;5.806;2022-11-20T02:32:20;-2.10;99.90
62573;DHT22;48626;51.678;5.806;2022-11-20T02:34:46;-2.10;99.90
62573;DHT22;48626;51.678;5.806;2022-11-20T02:37:12;-2.10;99.90
62573;DHT22;48626;51.678;5.806;2022-11-20T02:39:39;-2.10;99.90
62573;DHT22;48626;51.678;5.806;2022-11-20T02:42:05;-2.10;99.90
62573;DHT22;48626;51.678;5.806;2022-11-20T02:44:31;-2.10;99.90
62573;DHT22;48626;51.678;5.806;2022-11-20T02:46:58;-2.10;99.90
62573;DHT22;48626;51.678;5.806;2022-11-20T02:49:24;-2.10;99.90
62573;DHT22;48626;51.678;5.806;2022-11-20T02:51:50;-2.10;99.90
62573;DHT22;48626;51.678;5.806;2022-11-20T02:54:15;-2.10;99.90
62573;DHT22;48626;51.678;5.806;2022-11-20T02:56:41;-2.10;99.90
62573;DHT22;48626;51.678;5.806;2022-11-20T02:59:07;-2.10;99.90
62573;DHT22;48626;51.678;5.806;2022-11-20T03:01:33;-2.10;99.90
62573;DHT22;48626;51.678;5.806;2022-11-20T03:03:58;-2.10;99.90
62573;DHT22;48626;51.678;5.806;2022-11-20T03:06:24;-2.10;99.90
62573;DHT22;48626;51.678;5.806;2022-11-20T03:08:49;-2.20;99.90
62573;DHT22;48626;51.678;5.806;2022-11-20T03:11:15;-2.20;99.90
62573;DHT22;48626;51.678;5.806;2022-11-20T03:13:42;-2.20;99.90
62573;DHT22;48626;51.678;5.806;2022-11-20T03:16:10;-2.10;99.90
62573;DHT22;48626;51.678;5.806;2022-11-20T03:18:37;-2.20;99.90
62573;DHT22;48626;51.678;5.806;2022-11-20T03:21:02;-2.20;99.90
62573;DHT22;48626;51.678;5.806;2022-11-20T03:23:30;-2.20;99.90
62573;DHT22;48626;51.678;5.806;2022-11-20T03:26:13;-2.20;99.90
62573;DHT22;48626;51.678;5.806;2022-11-20T03:28:40;-2.20;99.90
62573;DHT22;48626;51.678;5.806;2022-11-20T03:31:16;-2.30;99.90
62573;DHT22;48626;51.678;5.806;2022-11-20T03:33:42;-2.30;99.90
62573;DHT22;48626;51.678;5.806;2022-11-20T03:36:11;-2.30;99.90
62573;DHT22;48626;51.678;5.806;2022-11-20T03:38:37;-2.30;99.90
62573;DHT22;48626;51.678;5.806;2022-11-20T03:41:05;-2.30;99.90
62573;DHT22;48626;51.678;5.806;2022-11-20T03:43:31;-2.30;99.90
62573;DHT22;48626;51.678;5.806;2022-11-20T03:45:58;-2.30;99.90
62573;DHT22;48626;51.678;5.806;2022-11-20T03:48:24;-2.30;99.90
62573;DHT22;48626;51.678;5.806;2022-11-20T03:50:49;-2.30;99.90
62573;DHT22;48626;51.678;5.806;2022-11-20T03:53:16;-2.30;99.90
62573;DHT22;48626;51.678;5.806;2022-11-20T03:55:42;-2.40;99.90
62573;DHT22;48626;51.678;5.806;2022-11-20T03:58:08;-2.40;99.90
62573;DHT22;48626;51.678;5.806;2022-11-20T04:00:34;-2.40;99.90
62573;DHT22;48626;51.678;5.806;2022-11-20T04:03:01;-2.50;99.90
62573;DHT22;48626;51.678;5.806;2022-11-20T04:05:27;-2.40;99.90
62573;DHT22;48626;51.678;5.806;2022-11-20T04:07:54;-2.50;99.90
62573;DHT22;48626;51.678;5.806;2022-11-20T04:10:19;-2.50;99.90
62573;DHT22;48626;51.678;5.806;2022-11-20T04:12:45;-2.50;99.90
62573;DHT22;48626;51.678;5.806;2022-11-20T04:15:11;-2.50;99.90
62573;DHT22;48626;51.678;5.806;2022-11-20T04:17:36;-2.50;99.90
62573;DHT22;48626;51.678;5.806;2022-11-20T04:20:02;-2.50;99.90
62573;DHT22;48626;51.678;5.806;2022-11-20T04:22:28;-2.50;99.90
62573;DHT22;48626;51.678;5.806;2022-11-20T04:24:53;-2.60;99.90
62573;DHT22;48626;51.678;5.806;2022-11-20T04:27:20;-2.60;99.90
62573;DHT22;48626;51.678;5.806;2022-11-20T04:29:46;-2.60;99.90
62573;DHT22;48626;51.678;5.806;2022-11-20T04:32:11;-2.60;99.90
62573;DHT22;48626;51.678;5.806;2022-11-20T04:34:37;-2.60;99.90
62573;DHT22;48626;51.678;5.806;2022-11-20T04:37:02;-2.70;99.90
62573;DHT22;48626;51.678;5.806;2022-11-20T04:39:28;-2.70;99.90
62573;DHT22;48626;51.678;5.806;2022-11-20T04:41:54;-2.70;99.90
62573;DHT22;48626;51.678;5.806;2022-11-20T04:44:39;-2.70;99.90
62573;DHT22;48626;51.678;5.806;2022-11-20T04:47:05;-2.70;99.90
62573;DHT22;48626;51.678;5.806;2022-11-20T04:49:30;-2.70;99.90
62573;DHT22;48626;51.678;5.806;2022-11-20T04:51:57;-2.70;99.90
62573;DHT22;48626;51.678;5.806;2022-11-20T04:54:23;-2.80;99.90
62573;DHT22;48626;51.678;5.806;2022-11-20T04:56:49;-2.80;99.90
62573;DHT22;48626;51.678;5.806;2022-11-20T04:59:15;-2.70;99.90
62573;DHT22;48626;51.678;5.806;2022-11-20T05:01:41;-2.70;99.90
62573;DHT22;48626;51.678;5.806;2022-11-20T05:04:06;-2.70;99.90
62573;DHT22;48626;51.678;5.806;2022-11-20T05:06:32;-2.70;99.90
62573;DHT22;48626;51.678;5.806;2022-11-20T05:08:58;-2.70;99.90
62573;DHT22;48626;51.678;5.806;2022-11-20T05:11:24;-2.70;99.90
62573;DHT22;48626;51.678;5.806;2022-11-20T05:13:51;-2.70;99.90
62573;DHT22;48626;51.678;5.806;2022-11-20T05:16:23;-2.70;99.90
62573;DHT22;48626;51.678;5.806;2022-11-20T05:18:50;-2.70;99.90
62573;DHT22;48626;51.678;5.806;2022-11-20T05:21:16;-2.80;99.90
62573;DHT22;48626;51.678;5.806;2022-11-20T05:23:42;-2.70;99.90
62573;DHT22;48626;51.678;5.806;2022-11-20T05:26:16;-2.70;99.90
62573;DHT22;48626;51.678;5.806;2022-11-20T05:28:42;-2.70;99.90
62573;DHT22;48626;51.678;5.806;2022-11-20T05:31:10;-2.80;99.90
62573;DHT22;48626;51.678;5.806;2022-11-20T05:33:37;-2.80;99.90
62573;DHT22;48626;51.678;5.806;2022-11-20T05:36:05;-2.80;99.90
62573;DHT22;48626;51.678;5.806;2022-11-20T05:38:31;-2.90;99.90
62573;DHT22;48626;51.678;5.806;2022-11-20T05:41:24;-2.80;99.90
62573;DHT22;48626;51.678;5.806;2022-11-20T05:43:49;-2.80;99.90
62573;DHT22;48626;51.678;5.806;2022-11-20T05:46:17;-2.80;99.90
62573;DHT22;48626;51.678;5.806;2022-11-20T05:48:44;-2.80;99.90
62573;DHT22;48626;51.678;5.806;2022-11-20T05:51:12;-2.90;99.90
62573;DHT22;48626;51.678;5.806;2022-11-20T05:53:38;-2.90;99.90
62573;DHT22;48626;51.678;5.806;2022-11-20T05:56:11;-2.90;99.90
62573;DHT22;48626;51.678;5.806;2022-11-20T05:58:38;-2.90;99.90
62573;DHT22;48626;51.678;5.806;2022-11-20T06:01:12;-2.90;99.90
62573;DHT22;48626;51.678;5.806;2022-11-20T06:03:39;-2.90;99.90
62573;DHT22;48626;51.678;5.806;2022-11-20T06:06:05;-2.90;99.90
62573;DHT22;48626;51.678;5.806;2022-11-20T06:08:32;-2.90;99.90
62573;DHT22;48626;51.678;5.806;2022-11-20T06:10:58;-2.90;99.90
62573;DHT22;48626;51.678;5.806;2022-11-20T06:13:24;-3.00;99.90
62573;DHT22;48626;51.678;5.806;2022-11-20T06:15:50;-3.00;99.90
62573;DHT22;48626;51.678;5.806;2022-11-20T06:18:16;-3.00;99.90
62573;DHT22;48626;51.678;5.806;2022-11-20T06:20:42;-3.10;99.90
62573;DHT22;48626;51.678;5.806;2022-11-20T06:23:07;-3.10;99.90
62573;DHT22;48626;51.678;5.806;2022-11-20T06:25:33;-3.10;99.90
62573;DHT22;48626;51.678;5.806;2022-11-20T06:28:02;-3.10;99.90
62573;DHT22;48626;51.678;5.806;2022-11-20T06:30:27;-3.10;99.90
62573;DHT22;48626;51.678;5.806;2022-11-20T06:32:53;-3.10;99.90
62573;DHT22;48626;51.678;5.806;2022-11-20T06:35:19;-3.10;99.90
62573;DHT22;48626;51.678;5.806;2022-11-20T06:37:44;-3.10;99.90
62573;DHT22;48626;51.678;5.806;2022-11-20T06:40:10;-3.10;99.90
62573;DHT22;48626;51.678;5.806;2022-11-20T06:42:36;-3.00;99.90
62573;DHT22;48626;51.678;5.806;2022-11-20T06:45:02;-3.00;99.90
62573;DHT22;48626;51.678;5.806;2022-11-20T06:47:27;-3.00;99.90
62573;DHT22;48626;51.678;5.806;2022-11-20T06:49:53;-3.00;99.90
62573;DHT22;48626;51.678;5.806;2022-11-20T06:52:19;-3.00;99.90
62573;DHT22;48626;51.678;5.806;2022-11-20T06:54:44;-2.90;99.90
62573;DHT22;48626;51.678;5.806;2022-11-20T06:57:10;-3.00;99.90
62573;DHT22;48626;51.678;5.806;2022-11-20T06:59:35;-3.00;99.90
62573;DHT22;48626;51.678;5.806;2022-11-20T07:02:01;-3.00;99.90
62573;DHT22;48626;51.678;5.806;2022-11-20T07:04:27;-3.00;99.90
62573;DHT22;48626;51.678;5.806;2022-11-20T07:06:53;-2.90;99.90
62573;DHT22;48626;51.678;5.806;2022-11-20T07:09:18;-2.90;99.90
62573;DHT22;48626;51.678;5.806;2022-11-20T07:11:44;-2.80;99.90
62573;DHT22;48626;51.678;5.806;2022-11-20T07:14:10;-2.80;99.90
62573;DHT22;48626;51.678;5.806;2022-11-20T07:16:35;-2.70;99.90
62573;DHT22;48626;51.678;5.806;2022-11-20T07:19:01;-2.60;99.90
62573;DHT22;48626;51.678;5.806;2022-11-20T07:21:27;-2.50;99.90
62573;DHT22;48626;51.678;5.806;2022-11-20T07:23:52;-2.50;99.90
62573;DHT22;48626;51.678;5.806;2022-11-20T07:26:18;-2.40;99.90
62573;DHT22;48626;51.678;5.806;2022-11-20T07:28:45;-2.40;99.90
62573;DHT22;48626;51.678;5.806;2022-11-20T07:31:10;-2.50;99.90
62573;DHT22;48626;51.678;5.806;2022-11-20T07:33:38;-2.50;99.90
62573;DHT22;48626;51.678;5.806;2022-11-20T07:36:04;-2.40;99.90
62573;DHT22;48626;51.678;5.806;2022-11-20T07:38:30;-2.30;99.90
62573;DHT22;48626;51.678;5.806;2022-11-20T07:40:56;-2.30;99.90
62573;DHT22;48626;51.678;5.806;2022-11-20T07:43:23;-2.20;99.90
62573;DHT22;48626;51.678;5.806;2022-11-20T07:45:49;-2.10;99.90
62573;DHT22;48626;51.678;5.806;2022-11-20T07:48:14;-1.90;99.90
62573;DHT22;48626;51.678;5.806;2022-11-20T07:50:40;-1.80;99.90
62573;DHT22;48626;51.678;5.806;2022-11-20T07:53:06;-1.70;99.90
62573;DHT22;48626;51.678;5.806;2022-11-20T07:55:32;-1.60;99.90
62573;DHT22;48626;51.678;5.806;2022-11-20T07:57:58;-1.40;99.90
62573;DHT22;48626;51.678;5.806;2022-11-20T08:00:25;-1.30;99.90
62573;DHT22;48626;51.678;5.806;2022-11-20T08:02:50;-1.20;99.90
62573;DHT22;48626;51.678;5.806;2022-11-20T08:05:16;-1.10;99.90
62573;DHT22;48626;51.678;5.806;2022-11-20T08:07:43;-1.00;99.90
62573;DHT22;48626;51.678;5.806;2022-11-20T08:10:11;-1.00;99.90
62573;DHT22;48626;51.678;5.806;2022-11-20T08:12:44;-0.80;99.90
62573;DHT22;48626;51.678;5.806;2022-11-20T08:15:29;-0.70;99.90
62573;DHT22;48626;51.678;5.806;2022-11-20T08:18:02;-0.70;99.90
62573;DHT22;48626;51.678;5.806;2022-11-20T08:20:29;-0.60;99.90
62573;DHT22;48626;51.678;5.806;2022-11-20T08:22:58;-0.60;99.90
62573;DHT22;48626;51.678;5.806;2022-11-20T08:25:25;-0.50;99.90
62573;DHT22;48626;51.678;5.806;2022-11-20T08:27:51;-0.40;99.90
62573;DHT22;48626;51.678;5.806;2022-11-20T08:30:16;-0.40;99.90
62573;DHT22;48626;51.678;5.806;2022-11-20T08:32:42;-0.40;99.90
62573;DHT22;48626;51.678;5.806;2022-11-20T08:35:08;-0.30;99.90
62573;DHT22;48626;51.678;5.806;2022-11-20T08:37:34;-0.20;99.90
62573;DHT22;48626;51.678;5.806;2022-11-20T08:39:59;-0.10;99.90
62573;DHT22;48626;51.678;5.806;2022-11-20T08:42:25;0.00;99.90
62573;DHT22;48626;51.678;5.806;2022-11-20T08:44:51;0.00;99.90
62573;DHT22;48626;51.678;5.806;2022-11-20T08:47:16;0.10;99.90
62573;DHT22;48626;51.678;5.806;2022-11-20T08:49:42;0.20;99.90
62573;DHT22;48626;51.678;5.806;2022-11-20T08:52:07;0.20;99.90
62573;DHT22;48626;51.678;5.806;2022-11-20T08:54:33;0.30;99.90
62573;DHT22;48626;51.678;5.806;2022-11-20T08:56:58;0.40;99.90
62573;DHT22;48626;51.678;5.806;2022-11-20T08:59:24;0.40;99.90
62573;DHT22;48626;51.678;5.806;2022-11-20T09:01:50;0.50;99.90
62573;DHT22;48626;51.678;5.806;2022-11-20T09:04:15;0.50;99.90
62573;DHT22;48626;51.678;5.806;2022-11-20T09:06:41;0.60;99.90
62573;DHT22;48626;51.678;5.806;2022-11-20T09:09:07;0.60;99.90
62573;DHT22;48626;51.678;5.806;2022-11-20T09:11:34;0.70;99.90
62573;DHT22;48626;51.678;5.806;2022-11-20T09:13:59;0.70;99.90
62573;DHT22;48626;51.678;5.806;2022-11-20T09:16:25;0.80;99.90
62573;DHT22;48626;51.678;5.806;2022-11-20T09:18:51;0.80;99.90
62573;DHT22;48626;51.678;5.806;2022-11-20T09:21:16;0.90;99.90
62573;DHT22;48626;51.678;5.806;2022-11-20T09:23:42;1.00;99.90
62573;DHT22;48626;51.678;5.806;2022-11-20T09:26:12;1.00;99.90
62573;DHT22;48626;51.678;5.806;2022-11-20T09:28:38;1.10;99.90
62573;DHT22;48626;51.678;5.806;2022-11-20T09:31:08;1.10;99.90
62573;DHT22;48626;51.678;5.806;2022-11-20T09:33:35;1.20;99.90
62573;DHT22;48626;51.678;5.806;2022-11-20T09:36:00;1.30;99.90
62573;DHT22;48626;51.678;5.806;2022-11-20T09:38:26;1.30;99.90
62573;DHT22;48626;51.678;5.806;2022-11-20T09:40:58;1.40;99.90
62573;DHT22;48626;51.678;5.806;2022-11-20T09:46:45;1.40;99.90
62573;DHT22;48626;51.678;5.806;2022-11-20T09:49:38;1.50;99.90
62573;DHT22;48626;51.678;5.806;2022-11-20T09:52:30;1.50;99.90
62573;DHT22;48626;51.678;5.806;2022-11-20T09:55:01;1.60;99.90
62573;DHT22;48626;51.678;5.806;2022-11-20T09:57:36;1.60;99.90
62573;DHT22;48626;51.678;5.806;2022-11-20T10:00:05;1.70;99.90
62573;DHT22;48626;51.678;5.806;2022-11-20T10:02:38;1.80;99.90
62573;DHT22;48626;51.678;5.806;2022-11-20T10:05:21;1.90;99.90
62573;DHT22;48626;51.678;5.806;2022-11-20T10:10:47;2.10;99.90
62573;DHT22;48626;51.678;5.806;2022-11-20T10:29:36;2.60;99.90
62573;DHT22;48626;51.678;5.806;2022-11-20T10:32:15;2.60;99.90
62573;DHT22;48626;51.678;5.806;2022-11-20T10:34:53;2.70;99.90
62573;DHT22;48626;51.678;5.806;2022-11-20T10:37:26;2.70;99.90
62573;DHT22;48626;51.678;5.806;2022-11-20T10:40:21;2.80;99.90
62573;DHT22;48626;51.678;5.806;2022-11-20T10:42:57;2.80;99.90
62573;DHT22;48626;51.678;5.806;2022-11-20T10:48:10;2.80;99.90
62573;DHT22;48626;51.678;5.806;2022-11-20T10:50:40;2.90;99.90
62573;DHT22;48626;51.678;5.806;2022-11-20T10:56:25;2.90;99.90
62573;DHT22;48626;51.678;5.806;2022-11-20T11:01:26;3.00;99.90
62573;DHT22;48626;51.678;5.806;2022-11-20T11:03:53;3.10;99.90
62573;DHT22;48626;51.678;5.806;2022-11-20T11:06:32;3.20;99.90
62573;DHT22;48626;51.678;5.806;2022-11-20T11:09:02;3.30;99.90
62573;DHT22;48626;51.678;5.806;2022-11-20T11:11:32;3.40;99.90
62573;DHT22;48626;51.678;5.806;2022-11-20T11:14:15;3.50;99.90
62573;DHT22;48626;51.678;5.806;2022-11-20T11:16:55;3.50;99.90
62573;DHT22;48626;51.678;5.806;2022-11-20T11:19:21;3.60;99.90
62573;DHT22;48626;51.678;5.806;2022-11-20T11:21:51;3.60;99.90
62573;DHT22;48626;51.678;5.806;2022-11-20T11:24:29;3.60;99.90
62573;DHT22;48626;51.678;5.806;2022-11-20T11:27:03;3.60;99.90
62573;DHT22;48626;51.678;5.806;2022-11-20T11:29:30;3.70;99.90
62573;DHT22;48626;51.678;5.806;2022-11-20T11:32:08;3.70;99.90
62573;DHT22;48626;51.678;5.806;2022-11-20T11:34:36;3.80;99.90
62573;DHT22;48626;51.678;5.806;2022-11-20T11:37:02;3.90;99.90
62573;DHT22;48626;51.678;5.806;2022-11-20T11:39:31;4.10;99.90
62573;DHT22;48626;51.678;5.806;2022-11-20T11:41:59;4.10;99.90
62573;DHT22;48626;51.678;5.806;2022-11-20T11:44:31;4.10;99.90
62573;DHT22;48626;51.678;5.806;2022-11-20T11:47:33;4.00;99.90
62573;DHT22;48626;51.678;5.806;2022-11-20T11:55:53;4.00;99.90
62573;DHT22;48626;51.678;5.806;2022-11-20T11:58:44;3.90;99.90
62573;DHT22;48626;51.678;5.806;2022-11-20T12:01:34;4.00;99.90
62573;DHT22;48626;51.678;5.806;2022-11-20T12:04:44;4.00;99.90
62573;DHT22;48626;51.678;5.806;2022-11-20T12:07:41;4.00;99.90
62573;DHT22;48626;51.678;5.806;2022-11-20T12:10:19;3.90;99.90
62573;DHT22;48626;51.678;5.806;2022-11-20T12:12:51;3.80;99.90
62573;DHT22;48626;51.678;5.806;2022-11-20T12:15:26;3.80;99.90
62573;DHT22;48626;51.678;5.806;2022-11-20T12:17:53;3.80;99.90
62573;DHT22;48626;51.678;5.806;2022-11-20T12:20:21;3.90;99.90
62573;DHT22;48626;51.678;5.806;2022-11-20T12:22:57;4.00;99.90
62573;DHT22;48626;51.678;5.806;2022-11-20T12:25:32;4.10;99.90
62573;DHT22;48626;51.678;5.806;2022-11-20T12:28:13;4.10;99.90
62573;DHT22;48626;51.678;5.806;2022-11-20T12:31:05;4.10;99.90
62573;DHT22;48626;51.678;5.806;2022-11-20T12:33:54;4.20;99.90
62573;DHT22;48626;51.678;5.806;2022-11-20T12:36:52;4.20;99.90
62573;DHT22;48626;51.678;5.806;2022-11-20T12:42:34;4.30;99.90
62573;DHT22;48626;51.678;5.806;2022-11-20T12:45:42;4.30;99.90
62573;DHT22;48626;51.678;5.806;2022-11-20T12:54:32;4.40;99.90
62573;DHT22;48626;51.678;5.806;2022-11-20T12:57:20;4.40;99.90
62573;DHT22;48626;51.678;5.806;2022-11-20T13:07:40;4.50;99.90
62573;DHT22;48626;51.678;5.806;2022-11-20T13:13:11;4.50;99.90
62573;DHT22;48626;51.678;5.806;2022-11-20T13:18:11;4.50;99.90
62573;DHT22;48626;51.678;5.806;2022-11-20T13:20:42;4.60;99.90
62573;DHT22;48626;51.678;5.806;2022-11-20T13:23:08;4.60;99.90
62573;DHT22;48626;51.678;5.806;2022-11-20T13:25:36;4.60;99.90
62573;DHT22;48626;51.678;5.806;2022-11-20T13:30:48;4.70;99.90
62573;DHT22;48626;51.678;5.806;2022-11-20T13:33:34;4.70;99.90
62573;DHT22;48626;51.678;5.806;2022-11-20T13:36:03;4.80;99.90
62573;DHT22;48626;51.678;5.806;2022-11-20T13:38:44;4.80;99.90
62573;DHT22;48626;51.678;5.806;2022-11-20T13:41:11;4.80;99.90
62573;DHT22;48626;51.678;5.806;2022-11-20T13:43:59;4.80;99.90
62573;DHT22;48626;51.678;5.806;2022-11-20T13:46:35;4.90;99.90
62573;DHT22;48626;51.678;5.806;2022-11-20T13:49:07;4.80;99.90
62573;DHT22;48626;51.678;5.806;2022-11-20T13:51:46;4.80;99.90
62573;DHT22;48626;51.678;5.806;2022-11-20T13:57:01;4.90;99.90
62573;DHT22;48626;51.678;5.806;2022-11-20T13:59:52;4.80;99.90
62573;DHT22;48626;51.678;5.806;2022-11-20T14:02:23;4.90;99.90
62573;DHT22;48626;51.678;5.806;2022-11-20T14:04:53;4.90;99.90
62573;DHT22;48626;51.678;5.806;2022-11-20T14:07:21;4.80;99.90
62573;DHT22;48626;51.678;5.806;2022-11-20T14:09:55;4.80;99.90
62573;DHT22;48626;51.678;5.806;2022-11-20T14:12:39;4.80;99.90
62573;DHT22;48626;51.678;5.806;2022-11-20T14:15:05;4.80;99.90
62573;DHT22;48626;51.678;5.806;2022-11-20T14:17:33;4.70;99.90
62573;DHT22;48626;51.678;5.806;2022-11-20T14:20:02;4.70;99.90
62573;DHT22;48626;51.678;5.806;2022-11-20T14:22:29;4.70;99.90
62573;DHT22;48626;51.678;5.806;2022-11-20T14:27:44;4.70;99.90
62573;DHT22;48626;51.678;5.806;2022-11-20T14:30:16;4.80;99.90
62573;DHT22;48626;51.678;5.806;2022-11-20T14:32:42;4.80;99.90
62573;DHT22;48626;51.678;5.806;2022-11-20T14:35:13;4.80;99.90
62573;DHT22;48626;51.678;5.806;2022-11-20T14:37:40;4.90;99.90
62573;DHT22;48626;51.678;5.806;2022-11-20T14:42:50;4.90;99.90
62573;DHT22;48626;51.678;5.806;2022-11-20T14:45:16;5.00;99.90
62573;DHT22;48626;51.678;5.806;2022-11-20T14:47:43;5.00;99.90
62573;DHT22;48626;51.678;5.806;2022-11-20T14:50:25;4.90;99.90
62573;DHT22;48626;51.678;5.806;2022-11-20T14:52:58;5.00;99.90
62573;DHT22;48626;51.678;5.806;2022-11-20T14:55:36;5.00;99.90
62573;DHT22;48626;51.678;5.806;2022-11-20T14:58:20;5.00;99.90
62573;DHT22;48626;51.678;5.806;2022-11-20T15:00:57;5.00;99.90
62573;DHT22;48626;51.678;5.806;2022-11-20T15:03:30;5.00;99.90
62573;DHT22;48626;51.678;5.806;2022-11-20T15:05:56;5.00;99.90
62573;DHT22;48626;51.678;5.806;2022-11-20T15:08:21;5.00;99.90
62573;DHT22;48626;51.678;5.806;2022-11-20T15:10:48;5.00;99.90
62573;DHT22;48626;51.678;5.806;2022-11-20T15:13:31;5.00;99.90
62573;DHT22;48626;51.678;5.806;2022-11-20T15:15:59;5.10;99.90
62573;DHT22;48626;51.678;5.806;2022-11-20T15:18:37;5.10;99.90
62573;DHT22;48626;51.678;5.806;2022-11-20T15:21:06;5.00;99.90
62573;DHT22;48626;51.678;5.806;2022-11-20T15:23:35;5.00;99.90
62573;DHT22;48626;51.678;5.806;2022-11-20T15:26:01;4.90;99.90
62573;DHT22;48626;51.678;5.806;2022-11-20T15:28:35;4.90;99.90
62573;DHT22;48626;51.678;5.806;2022-11-20T15:31:03;5.00;99.90
62573;DHT22;48626;51.678;5.806;2022-11-20T15:33:30;5.00;99.90
62573;DHT22;48626;51.678;5.806;2022-11-20T15:35:56;5.00;99.90
62573;DHT22;48626;51.678;5.806;2022-11-20T15:38:22;5.00;99.90
62573;DHT22;48626;51.678;5.806;2022-11-20T15:40:48;5.00;99.90
62573;DHT22;48626;51.678;5.806;2022-11-20T15:43:13;5.00;99.90
62573;DHT22;48626;51.678;5.806;2022-11-20T15:45:46;4.90;99.90
62573;DHT22;48626;51.678;5.806;2022-11-20T15:48:37;5.00;99.90
62573;DHT22;48626;51.678;5.806;2022-11-20T15:51:06;5.00;99.90
62573;DHT22;48626;51.678;5.806;2022-11-20T15:53:32;5.00;99.90
62573;DHT22;48626;51.678;5.806;2022-11-20T15:55:58;5.00;99.90
62573;DHT22;48626;51.678;5.806;2022-11-20T15:58:23;5.00;99.90
62573;DHT22;48626;51.678;5.806;2022-11-20T16:00:50;5.00;99.90
62573;DHT22;48626;51.678;5.806;2022-11-20T16:03:16;5.10;99.90
62573;DHT22;48626;51.678;5.806;2022-11-20T16:05:43;5.10;99.90
62573;DHT22;48626;51.678;5.806;2022-11-20T16:08:08;5.10;99.90
62573;DHT22;48626;51.678;5.806;2022-11-20T16:10:34;5.20;99.90
62573;DHT22;48626;51.678;5.806;2022-11-20T16:13:01;5.20;99.90
62573;DHT22;48626;51.678;5.806;2022-11-20T16:15:51;5.20;99.90
62573;DHT22;48626;51.678;5.806;2022-11-20T16:18:19;5.20;99.90
62573;DHT22;48626;51.678;5.806;2022-11-20T16:20:46;5.20;99.90
62573;DHT22;48626;51.678;5.806;2022-11-20T16:23:12;5.30;99.90
62573;DHT22;48626;51.678;5.806;2022-11-20T16:25:38;5.30;99.90
62573;DHT22;48626;51.678;5.806;2022-11-20T16:28:05;5.30;99.90
62573;DHT22;48626;51.678;5.806;2022-11-20T16:30:32;5.30;99.90
62573;DHT22;48626;51.678;5.806;2022-11-20T16:32:58;5.30;99.90
62573;DHT22;48626;51.678;5.806;2022-11-20T16:35:26;5.30;99.90
62573;DHT22;48626;51.678;5.806;2022-11-20T16:37:53;5.30;99.90
62573;DHT22;48626;51.678;5.806;2022-11-20T16:40:19;5.30;99.90
62573;DHT22;48626;51.678;5.806;2022-11-20T16:42:44;5.30;99.90
62573;DHT22;48626;51.678;5.806;2022-11-20T16:45:10;5.30;99.90
62573;DHT22;48626;51.678;5.806;2022-11-20T16:47:36;5.30;99.90
62573;DHT22;48626;51.678;5.806;2022-11-20T16:50:02;5.30;99.90
62573;DHT22;48626;51.678;5.806;2022-11-20T16:52:29;5.30;99.90
62573;DHT22;48626;51.678;5.806;2022-11-20T16:54:55;5.40;99.90
62573;DHT22;48626;51.678;5.806;2022-11-20T16:57:21;5.40;99.90
62573;DHT22;48626;51.678;5.806;2022-11-20T16:59:47;5.40;99.90
62573;DHT22;48626;51.678;5.806;2022-11-20T17:02:13;5.40;99.90
62573;DHT22;48626;51.678;5.806;2022-11-20T17:04:38;5.40;99.90
62573;DHT22;48626;51.678;5.806;2022-11-20T17:07:04;5.40;99.90
62573;DHT22;48626;51.678;5.806;2022-11-20T17:09:29;5.40;99.90
62573;DHT22;48626;51.678;5.806;2022-11-20T17:11:55;5.40;99.90